sensor_id;sensor_type;location;lat;lon;timestamp;P1;durP1;ratioP1;P2;durP2;ratioP2
63965;SDS011;50151;52.030;5.350;2023-04-15T00:01:09;7.22;;;3.80;;
63965;SDS011;50151;52.030;5.350;2023-04-15T00:03:36;7.53;;;3.60;;
63965;SDS011;50151;52.030;5.350;2023-04-15T00:06:03;10.90;;;3.88;;
63965;SDS011;50151;52.030;5.350;2023-04-15T00:08:30;5.50;;;3.15;;
63965;SDS011;50151;52.030;5.350;2023-04-15T00:10:57;9.35;;;3.67;;
63965;SDS011;50151;52.030;5.350;2023-04-15T00:13:28;8.07;;;3.67;;
63965;SDS011;50151;52.030;5.350;2023-04-15T00:15:55;6.13;;;3.65;;
63965;SDS011;50151;52.030;5.350;2023-04-15T00:18:22;8.38;;;3.50;;
63965;SDS011;50151;52.030;5.350;2023-04-15T00:20:49;11.88;;;3.83;;
63965;SDS011;50151;52.030;5.350;2023-04-15T00:23:19;7.70;;;3.53;;
63965;SDS011;50151;52.030;5.350;2023-04-15T00:25:46;6.82;;;3.45;;
63965;SDS011;50151;52.030;5.350;2023-04-15T00:28:12;8.30;;;3.28;;
63965;SDS011;50151;52.030;5.350;2023-04-15T00:30:39;9.88;;;3.40;;
63965;SDS011;50151;52.030;5.350;2023-04-15T00:33:06;9.60;;;3.70;;
63965;SDS011;50151;52.030;5.350;2023-04-15T00:35:33;6.55;;;3.47;;
63965;SDS011;50151;52.030;5.350;2023-04-15T00:38:02;10.45;;;3.80;;
63965;SDS011;50151;52.030;5.350;2023-04-15T00:40:29;7.40;;;3.80;;
63965;SDS011;50151;52.030;5.350;2023-04-15T00:42:56;9.00;;;3.78;;
63965;SDS011;50151;52.030;5.350;2023-04-15T00:45:23;8.77;;;3.70;;
63965;SDS011;50151;52.030;5.350;2023-04-15T00:47:50;7.07;;;3.42;;
63965;SDS011;50151;52.030;5.350;2023-04-15T00:50:17;10.52;;;4.20;;
63965;SDS011;50151;52.030;5.350;2023-04-15T00:52:44;10.80;;;3.50;;
63965;SDS011;50151;52.030;5.350;2023-04-15T00:55:10;7.25;;;3.67;;
63965;SDS011;50151;52.030;5.350;2023-04-15T00:57:38;7.30;;;3.65;;
63965;SDS011;50151;52.030;5.350;2023-04-15T01:00:05;8.48;;;3.90;;
63965;SDS011;50151;52.030;5.350;2023-04-15T01:02:36;7.60;;;3.75;;
63965;SDS011;50151;52.030;5.350;2023-04-15T01:05:04;11.43;;;4.28;;
63965;SDS011;50151;52.030;5.350;2023-04-15T01:07:31;13.00;;;4.60;;
63965;SDS011;50151;52.030;5.350;2023-04-15T01:09:58;7.70;;;4.00;;
63965;SDS011;50151;52.030;5.350;2023-04-15T01:12:25;7.50;;;4.10;;
63965;SDS011;50151;52.030;5.350;2023-04-15T01:14:52;8.52;;;4.80;;
63965;SDS011;50151;52.030;5.350;2023-04-15T01:17:20;7.13;;;4.25;;
63965;SDS011;50151;52.030;5.350;2023-04-15T01:19:47;8.05;;;4.20;;
63965;SDS011;50151;52.030;5.350;2023-04-15T01:22:14;7.93;;;4.43;;
63965;SDS011;50151;52.030;5.350;2023-04-15T01:24:41;8.27;;;4.20;;
63965;SDS011;50151;52.030;5.350;2023-04-15T01:27:17;6.72;;;4.68;;
63965;SDS011;50151;52.030;5.350;2023-04-15T01:29:44;8.15;;;4.30;;
63965;SDS011;50151;52.030;5.350;2023-04-15T01:32:11;11.98;;;4.68;;
63965;SDS011;50151;52.030;5.350;2023-04-15T01:34:38;8.20;;;4.53;;
63965;SDS011;50151;52.030;5.350;2023-04-15T01:37:04;10.35;;;4.65;;
63965;SDS011;50151;52.030;5.350;2023-04-15T01:39:31;8.15;;;4.45;;
63965;SDS011;50151;52.030;5.350;2023-04-15T01:41:58;9.80;;;4.75;;
63965;SDS011;50151;52.030;5.350;2023-04-15T01:44:25;10.45;;;4.43;;
63965;SDS011;50151;52.030;5.350;2023-04-15T01:46:52;8.75;;;4.45;;
63965;SDS011;50151;52.030;5.350;2023-04-15T01:49:19;8.52;;;4.75;;
63965;SDS011;50151;52.030;5.350;2023-04-15T01:51:46;11.10;;;4.78;;
63965;SDS011;50151;52.030;5.350;2023-04-15T01:54:13;10.18;;;4.80;;
63965;SDS011;50151;52.030;5.350;2023-04-15T01:56:39;8.48;;;4.55;;
63965;SDS011;50151;52.030;5.350;2023-04-15T01:59:06;8.80;;;4.28;;
63965;SDS011;50151;52.030;5.350;2023-04-15T02:01:33;9.93;;;4.72;;
63965;SDS011;50151;52.030;5.350;2023-04-15T02:04:00;7.38;;;4.40;;
63965;SDS011;50151;52.030;5.350;2023-04-15T02:06:27;11.13;;;4.63;;
63965;SDS011;50151;52.030;5.350;2023-04-15T02:08:53;9.73;;;4.75;;
63965;SDS011;50151;52.030;5.350;2023-04-15T02:11:20;12.63;;;4.90;;
63965;SDS011;50151;52.030;5.350;2023-04-15T02:13:48;9.00;;;5.20;;
63965;SDS011;50151;52.030;5.350;2023-04-15T02:16:18;8.32;;;4.50;;
63965;SDS011;50151;52.030;5.350;2023-04-15T02:18:45;7.45;;;4.35;;
63965;SDS011;50151;52.030;5.350;2023-04-15T02:21:12;7.57;;;4.53;;
63965;SDS011;50151;52.030;5.350;2023-04-15T02:23:39;9.88;;;4.57;;
63965;SDS011;50151;52.030;5.350;2023-04-15T02:26:06;9.52;;;5.00;;
63965;SDS011;50151;52.030;5.350;2023-04-15T02:28:33;10.23;;;4.78;;
63965;SDS011;50151;52.030;5.350;2023-04-15T02:31:05;10.23;;;4.82;;
63965;SDS011;50151;52.030;5.350;2023-04-15T02:33:33;10.43;;;4.88;;
63965;SDS011;50151;52.030;5.350;2023-04-15T02:36:00;7.35;;;4.50;;
63965;SDS011;50151;52.030;5.350;2023-04-15T02:38:26;11.60;;;5.20;;
63965;SDS011;50151;52.030;5.350;2023-04-15T02:40:53;9.68;;;4.80;;
63965;SDS011;50151;52.030;5.350;2023-04-15T02:43:20;7.57;;;4.95;;
63965;SDS011;50151;52.030;5.350;2023-04-15T02:45:47;10.00;;;4.53;;
63965;SDS011;50151;52.030;5.350;2023-04-15T02:48:14;10.02;;;5.10;;
63965;SDS011;50151;52.030;5.350;2023-04-15T02:50:43;7.10;;;4.60;;
63965;SDS011;50151;52.030;5.350;2023-04-15T02:53:10;6.55;;;4.63;;
63965;SDS011;50151;52.030;5.350;2023-04-15T02:55:38;12.95;;;4.80;;
63965;SDS011;50151;52.030;5.350;2023-04-15T02:58:05;12.27;;;4.70;;
63965;SDS011;50151;52.030;5.350;2023-04-15T03:00:32;8.70;;;4.75;;
63965;SDS011;50151;52.030;5.350;2023-04-15T03:03:02;9.77;;;4.85;;
63965;SDS011;50151;52.030;5.350;2023-04-15T03:05:30;8.00;;;4.75;;
63965;SDS011;50151;52.030;5.350;2023-04-15T03:07:57;10.75;;;5.15;;
63965;SDS011;50151;52.030;5.350;2023-04-15T03:10:25;13.57;;;5.57;;
63965;SDS011;50151;52.030;5.350;2023-04-15T03:12:52;9.25;;;4.82;;
63965;SDS011;50151;52.030;5.350;2023-04-15T03:15:19;11.70;;;5.28;;
63965;SDS011;50151;52.030;5.350;2023-04-15T03:17:46;12.15;;;4.82;;
63965;SDS011;50151;52.030;5.350;2023-04-15T03:20:14;8.95;;;5.85;;
63965;SDS011;50151;52.030;5.350;2023-04-15T03:22:42;9.27;;;5.60;;
63965;SDS011;50151;52.030;5.350;2023-04-15T03:25:09;10.70;;;5.32;;
63965;SDS011;50151;52.030;5.350;2023-04-15T03:27:36;7.85;;;5.05;;
63965;SDS011;50151;52.030;5.350;2023-04-15T03:30:03;9.73;;;5.22;;
63965;SDS011;50151;52.030;5.350;2023-04-15T03:32:31;8.35;;;5.03;;
63965;SDS011;50151;52.030;5.350;2023-04-15T03:34:58;10.80;;;5.15;;
63965;SDS011;50151;52.030;5.350;2023-04-15T03:37:25;10.95;;;5.63;;
63965;SDS011;50151;52.030;5.350;2023-04-15T03:39:52;9.45;;;5.40;;
63965;SDS011;50151;52.030;5.350;2023-04-15T03:42:19;8.73;;;5.60;;
63965;SDS011;50151;52.030;5.350;2023-04-15T03:44:45;8.98;;;5.25;;
63965;SDS011;50151;52.030;5.350;2023-04-15T03:47:12;11.73;;;5.95;;
63965;SDS011;50151;52.030;5.350;2023-04-15T03:49:39;8.73;;;4.93;;
63965;SDS011;50151;52.030;5.350;2023-04-15T03:52:05;9.35;;;5.78;;
63965;SDS011;50151;52.030;5.350;2023-04-15T03:54:32;13.43;;;5.55;;
63965;SDS011;50151;52.030;5.350;2023-04-15T03:56:59;7.07;;;5.10;;
63965;SDS011;50151;52.030;5.350;2023-04-15T03:59:26;8.30;;;5.10;;
63965;SDS011;50151;52.030;5.350;2023-04-15T04:01:53;12.13;;;6.18;;
63965;SDS011;50151;52.030;5.350;2023-04-15T04:04:19;8.95;;;5.43;;
63965;SDS011;50151;52.030;5.350;2023-04-15T04:06:46;13.43;;;5.68;;
63965;SDS011;50151;52.030;5.350;2023-04-15T04:09:13;13.35;;;5.95;;
63965;SDS011;50151;52.030;5.350;2023-04-15T04:11:40;11.30;;;5.90;;
63965;SDS011;50151;52.030;5.350;2023-04-15T04:14:07;11.98;;;5.82;;
63965;SDS011;50151;52.030;5.350;2023-04-15T04:16:34;10.38;;;5.43;;
63965;SDS011;50151;52.030;5.350;2023-04-15T04:19:01;11.65;;;5.75;;
63965;SDS011;50151;52.030;5.350;2023-04-15T04:21:28;8.35;;;5.78;;
63965;SDS011;50151;52.030;5.350;2023-04-15T04:23:55;12.85;;;5.68;;
63965;SDS011;50151;52.030;5.350;2023-04-15T04:26:22;7.25;;;5.70;;
63965;SDS011;50151;52.030;5.350;2023-04-15T04:28:49;11.15;;;5.93;;
63965;SDS011;50151;52.030;5.350;2023-04-15T04:31:15;9.23;;;5.43;;
63965;SDS011;50151;52.030;5.350;2023-04-15T04:33:42;8.93;;;5.50;;
63965;SDS011;50151;52.030;5.350;2023-04-15T04:36:09;11.45;;;6.30;;
63965;SDS011;50151;52.030;5.350;2023-04-15T04:38:36;9.60;;;5.65;;
63965;SDS011;50151;52.030;5.350;2023-04-15T04:41:02;12.82;;;5.70;;
63965;SDS011;50151;52.030;5.350;2023-04-15T04:43:29;10.07;;;6.10;;
63965;SDS011;50151;52.030;5.350;2023-04-15T04:45:56;10.65;;;6.13;;
63965;SDS011;50151;52.030;5.350;2023-04-15T04:48:22;8.20;;;5.70;;
63965;SDS011;50151;52.030;5.350;2023-04-15T04:50:49;10.82;;;6.15;;
63965;SDS011;50151;52.030;5.350;2023-04-15T04:53:16;11.02;;;5.85;;
63965;SDS011;50151;52.030;5.350;2023-04-15T04:55:43;12.93;;;6.13;;
63965;SDS011;50151;52.030;5.350;2023-04-15T04:58:09;12.80;;;5.68;;
63965;SDS011;50151;52.030;5.350;2023-04-15T05:00:36;10.02;;;6.40;;
63965;SDS011;50151;52.030;5.350;2023-04-15T05:03:03;10.40;;;6.10;;
63965;SDS011;50151;52.030;5.350;2023-04-15T05:05:33;10.95;;;5.88;;
63965;SDS011;50151;52.030;5.350;2023-04-15T05:08:02;9.57;;;5.88;;
63965;SDS011;50151;52.030;5.350;2023-04-15T05:10:28;10.52;;;5.72;;
63965;SDS011;50151;52.030;5.350;2023-04-15T05:12:55;9.65;;;5.90;;
63965;SDS011;50151;52.030;5.350;2023-04-15T05:15:23;10.30;;;6.25;;
63965;SDS011;50151;52.030;5.350;2023-04-15T05:17:50;10.48;;;6.82;;
63965;SDS011;50151;52.030;5.350;2023-04-15T05:20:17;11.80;;;6.35;;
63965;SDS011;50151;52.030;5.350;2023-04-15T05:22:44;10.40;;;6.03;;
63965;SDS011;50151;52.030;5.350;2023-04-15T05:25:10;13.43;;;6.50;;
63965;SDS011;50151;52.030;5.350;2023-04-15T05:27:38;8.27;;;5.88;;
63965;SDS011;50151;52.030;5.350;2023-04-15T05:30:05;10.00;;;6.35;;
63965;SDS011;50151;52.030;5.350;2023-04-15T05:32:32;9.20;;;6.32;;
63965;SDS011;50151;52.030;5.350;2023-04-15T05:34:59;10.30;;;6.50;;
63965;SDS011;50151;52.030;5.350;2023-04-15T05:37:25;7.80;;;5.95;;
63965;SDS011;50151;52.030;5.350;2023-04-15T05:39:52;10.60;;;6.00;;
63965;SDS011;50151;52.030;5.350;2023-04-15T05:42:19;10.65;;;5.70;;
63965;SDS011;50151;52.030;5.350;2023-04-15T05:44:46;9.02;;;6.13;;
63965;SDS011;50151;52.030;5.350;2023-04-15T05:47:12;11.77;;;7.43;;
63965;SDS011;50151;52.030;5.350;2023-04-15T05:49:39;12.70;;;6.05;;
63965;SDS011;50151;52.030;5.350;2023-04-15T05:52:06;9.93;;;5.03;;
63965;SDS011;50151;52.030;5.350;2023-04-15T05:54:32;10.32;;;5.97;;
63965;SDS011;50151;52.030;5.350;2023-04-15T05:56:59;10.30;;;6.13;;
63965;SDS011;50151;52.030;5.350;2023-04-15T05:59:26;11.70;;;6.43;;
63965;SDS011;50151;52.030;5.350;2023-04-15T06:01:53;11.68;;;6.20;;
63965;SDS011;50151;52.030;5.350;2023-04-15T06:04:20;16.15;;;6.88;;
63965;SDS011;50151;52.030;5.350;2023-04-15T06:06:48;8.95;;;5.85;;
63965;SDS011;50151;52.030;5.350;2023-04-15T06:09:14;9.45;;;6.43;;
63965;SDS011;50151;52.030;5.350;2023-04-15T06:11:41;7.88;;;5.88;;
63965;SDS011;50151;52.030;5.350;2023-04-15T06:14:08;9.10;;;6.20;;
63965;SDS011;50151;52.030;5.350;2023-04-15T06:16:35;9.73;;;6.18;;
63965;SDS011;50151;52.030;5.350;2023-04-15T06:19:02;11.43;;;5.80;;
63965;SDS011;50151;52.030;5.350;2023-04-15T06:21:29;9.25;;;6.45;;
63965;SDS011;50151;52.030;5.350;2023-04-15T06:23:57;8.25;;;6.25;;
63965;SDS011;50151;52.030;5.350;2023-04-15T06:26:26;9.40;;;6.00;;
63965;SDS011;50151;52.030;5.350;2023-04-15T06:28:53;8.73;;;6.18;;
63965;SDS011;50151;52.030;5.350;2023-04-15T06:31:20;12.38;;;6.25;;
63965;SDS011;50151;52.030;5.350;2023-04-15T06:33:47;8.07;;;6.00;;
63965;SDS011;50151;52.030;5.350;2023-04-15T06:36:14;10.88;;;6.60;;
63965;SDS011;50151;52.030;5.350;2023-04-15T06:38:41;10.10;;;6.63;;
63965;SDS011;50151;52.030;5.350;2023-04-15T06:41:08;7.28;;;5.50;;
63965;SDS011;50151;52.030;5.350;2023-04-15T06:43:34;10.57;;;5.93;;
63965;SDS011;50151;52.030;5.350;2023-04-15T06:46:01;9.13;;;5.47;;
63965;SDS011;50151;52.030;5.350;2023-04-15T06:48:28;9.40;;;6.70;;
63965;SDS011;50151;52.030;5.350;2023-04-15T06:50:54;10.68;;;6.45;;
63965;SDS011;50151;52.030;5.350;2023-04-15T06:53:24;8.00;;;6.47;;
63965;SDS011;50151;52.030;5.350;2023-04-15T06:55:53;10.65;;;6.20;;
63965;SDS011;50151;52.030;5.350;2023-04-15T06:58:20;9.10;;;6.38;;
63965;SDS011;50151;52.030;5.350;2023-04-15T07:00:46;8.93;;;6.43;;
63965;SDS011;50151;52.030;5.350;2023-04-15T07:03:14;11.20;;;6.55;;
63965;SDS011;50151;52.030;5.350;2023-04-15T07:05:41;11.07;;;6.40;;
63965;SDS011;50151;52.030;5.350;2023-04-15T07:08:07;11.45;;;6.38;;
63965;SDS011;50151;52.030;5.350;2023-04-15T07:10:34;11.38;;;6.30;;
63965;SDS011;50151;52.030;5.350;2023-04-15T07:13:02;10.27;;;6.60;;
63965;SDS011;50151;52.030;5.350;2023-04-15T07:15:29;9.55;;;6.05;;
63965;SDS011;50151;52.030;5.350;2023-04-15T07:17:56;15.90;;;7.43;;
63965;SDS011;50151;52.030;5.350;2023-04-15T07:20:23;10.57;;;6.80;;
63965;SDS011;50151;52.030;5.350;2023-04-15T07:22:50;11.52;;;6.47;;
63965;SDS011;50151;52.030;5.350;2023-04-15T07:25:16;9.77;;;6.40;;
63965;SDS011;50151;52.030;5.350;2023-04-15T07:27:44;14.07;;;7.10;;
63965;SDS011;50151;52.030;5.350;2023-04-15T07:30:11;10.10;;;6.70;;
63965;SDS011;50151;52.030;5.350;2023-04-15T07:32:38;11.13;;;7.22;;
63965;SDS011;50151;52.030;5.350;2023-04-15T07:35:05;9.15;;;6.43;;
63965;SDS011;50151;52.030;5.350;2023-04-15T07:37:32;8.68;;;6.57;;
63965;SDS011;50151;52.030;5.350;2023-04-15T07:39:59;13.48;;;6.72;;
63965;SDS011;50151;52.030;5.350;2023-04-15T07:42:27;8.88;;;6.22;;
63965;SDS011;50151;52.030;5.350;2023-04-15T07:44:54;9.48;;;6.80;;
63965;SDS011;50151;52.030;5.350;2023-04-15T07:47:21;9.93;;;6.30;;
63965;SDS011;50151;52.030;5.350;2023-04-15T07:49:48;8.63;;;5.88;;
63965;SDS011;50151;52.030;5.350;2023-04-15T07:52:16;9.43;;;6.22;;
63965;SDS011;50151;52.030;5.350;2023-04-15T07:54:44;8.30;;;5.53;;
63965;SDS011;50151;52.030;5.350;2023-04-15T07:57:10;10.90;;;6.72;;
63965;SDS011;50151;52.030;5.350;2023-04-15T07:59:37;7.72;;;5.85;;
63965;SDS011;50151;52.030;5.350;2023-04-15T08:02:04;10.18;;;5.82;;
63965;SDS011;50151;52.030;5.350;2023-04-15T08:04:30;8.68;;;6.05;;
63965;SDS011;50151;52.030;5.350;2023-04-15T08:06:57;7.80;;;5.35;;
63965;SDS011;50151;52.030;5.350;2023-04-15T08:09:24;8.13;;;5.68;;
63965;SDS011;50151;52.030;5.350;2023-04-15T08:11:52;6.85;;;4.93;;
63965;SDS011;50151;52.030;5.350;2023-04-15T08:14:19;8.63;;;5.93;;
63965;SDS011;50151;52.030;5.350;2023-04-15T08:16:45;10.32;;;6.22;;
63965;SDS011;50151;52.030;5.350;2023-04-15T08:19:12;10.90;;;5.55;;
63965;SDS011;50151;52.030;5.350;2023-04-15T08:21:39;11.77;;;5.43;;
63965;SDS011;50151;52.030;5.350;2023-04-15T08:24:06;7.75;;;5.03;;
63965;SDS011;50151;52.030;5.350;2023-04-15T08:26:33;8.23;;;5.35;;
63965;SDS011;50151;52.030;5.350;2023-04-15T08:28:59;9.43;;;4.65;;
63965;SDS011;50151;52.030;5.350;2023-04-15T08:31:27;6.45;;;4.75;;
63965;SDS011;50151;52.030;5.350;2023-04-15T08:33:55;6.20;;;3.97;;
63965;SDS011;50151;52.030;5.350;2023-04-15T08:36:22;6.28;;;4.40;;
63965;SDS011;50151;52.030;5.350;2023-04-15T08:38:49;7.22;;;4.10;;
63965;SDS011;50151;52.030;5.350;2023-04-15T08:41:19;9.55;;;3.80;;
63965;SDS011;50151;52.030;5.350;2023-04-15T08:43:51;10.15;;;4.38;;
63965;SDS011;50151;52.030;5.350;2023-04-15T08:46:20;7.85;;;4.32;;
63965;SDS011;50151;52.030;5.350;2023-04-15T08:48:48;7.75;;;3.80;;
63965;SDS011;50151;52.030;5.350;2023-04-15T08:51:16;4.72;;;3.10;;
63965;SDS011;50151;52.030;5.350;2023-04-15T08:53:43;6.35;;;2.95;;
63965;SDS011;50151;52.030;5.350;2023-04-15T08:56:13;4.85;;;2.70;;
63965;SDS011;50151;52.030;5.350;2023-04-15T08:58:42;3.35;;;2.75;;
63965;SDS011;50151;52.030;5.350;2023-04-15T09:01:10;4.90;;;3.10;;
63965;SDS011;50151;52.030;5.350;2023-04-15T09:03:38;4.28;;;2.70;;
63965;SDS011;50151;52.030;5.350;2023-04-15T09:06:06;6.78;;;3.33;;
63965;SDS011;50151;52.030;5.350;2023-04-15T09:08:33;5.15;;;2.40;;
63965;SDS011;50151;52.030;5.350;2023-04-15T09:11:01;3.28;;;2.38;;
63965;SDS011;50151;52.030;5.350;2023-04-15T09:13:28;7.05;;;2.65;;
63965;SDS011;50151;52.030;5.350;2023-04-15T09:15:56;4.72;;;2.45;;
63965;SDS011;50151;52.030;5.350;2023-04-15T09:18:27;4.15;;;2.88;;
63965;SDS011;50151;52.030;5.350;2023-04-15T09:20:54;5.28;;;3.30;;
63965;SDS011;50151;52.030;5.350;2023-04-15T09:23:22;5.00;;;2.67;;
63965;SDS011;50151;52.030;5.350;2023-04-15T09:25:49;4.18;;;3.15;;
63965;SDS011;50151;52.030;5.350;2023-04-15T09:28:22;8.13;;;3.85;;
63965;SDS011;50151;52.030;5.350;2023-04-15T09:30:50;5.57;;;2.97;;
63965;SDS011;50151;52.030;5.350;2023-04-15T09:33:21;6.10;;;3.40;;
63965;SDS011;50151;52.030;5.350;2023-04-15T09:36:01;4.75;;;3.20;;
63965;SDS011;50151;52.030;5.350;2023-04-15T09:38:30;5.60;;;3.15;;
63965;SDS011;50151;52.030;5.350;2023-04-15T09:40:57;7.13;;;3.38;;
63965;SDS011;50151;52.030;5.350;2023-04-15T09:43:39;4.05;;;2.78;;
63965;SDS011;50151;52.030;5.350;2023-04-15T09:46:06;3.78;;;2.72;;
63965;SDS011;50151;52.030;5.350;2023-04-15T09:48:33;6.20;;;2.70;;
63965;SDS011;50151;52.030;5.350;2023-04-15T09:51:00;5.25;;;3.03;;
63965;SDS011;50151;52.030;5.350;2023-04-15T09:53:27;3.85;;;2.33;;
63965;SDS011;50151;52.030;5.350;2023-04-15T09:55:57;4.78;;;2.65;;
63965;SDS011;50151;52.030;5.350;2023-04-15T09:58:31;3.95;;;2.63;;
63965;SDS011;50151;52.030;5.350;2023-04-15T10:01:02;4.68;;;2.40;;
63965;SDS011;50151;52.030;5.350;2023-04-15T10:03:31;5.75;;;2.47;;
63965;SDS011;50151;52.030;5.350;2023-04-15T10:06:01;5.70;;;2.35;;
63965;SDS011;50151;52.030;5.350;2023-04-15T10:08:29;2.72;;;2.20;;
63965;SDS011;50151;52.030;5.350;2023-04-15T10:10:58;4.03;;;2.22;;
63965;SDS011;50151;52.030;5.350;2023-04-15T10:13:28;3.30;;;2.17;;
63965;SDS011;50151;52.030;5.350;2023-04-15T10:16:06;5.93;;;2.50;;
63965;SDS011;50151;52.030;5.350;2023-04-15T10:18:44;5.10;;;2.70;;
63965;SDS011;50151;52.030;5.350;2023-04-15T10:21:12;3.70;;;2.40;;
63965;SDS011;50151;52.030;5.350;2023-04-15T10:23:47;6.50;;;2.95;;
63965;SDS011;50151;52.030;5.350;2023-04-15T10:26:14;4.85;;;3.05;;
63965;SDS011;50151;52.030;5.350;2023-04-15T10:28:43;5.75;;;2.70;;
63965;SDS011;50151;52.030;5.350;2023-04-15T10:31:10;4.72;;;2.63;;
63965;SDS011;50151;52.030;5.350;2023-04-15T10:33:41;7.70;;;2.70;;
63965;SDS011;50151;52.030;5.350;2023-04-15T10:36:10;4.85;;;2.53;;
63965;SDS011;50151;52.030;5.350;2023-04-15T10:38:41;3.47;;;2.40;;
63965;SDS011;50151;52.030;5.350;2023-04-15T10:44:01;3.83;;;2.13;;
63965;SDS011;50151;52.030;5.350;2023-04-15T10:46:43;2.50;;;1.98;;
63965;SDS011;50151;52.030;5.350;2023-04-15T10:49:15;3.65;;;2.53;;
63965;SDS011;50151;52.030;5.350;2023-04-15T10:51:49;3.30;;;2.40;;
63965;SDS011;50151;52.030;5.350;2023-04-15T10:59:37;4.00;;;2.40;;
63965;SDS011;50151;52.030;5.350;2023-04-15T11:05:13;3.42;;;2.10;;
63965;SDS011;50151;52.030;5.350;2023-04-15T11:12:52;4.32;;;1.85;;
63965;SDS011;50151;52.030;5.350;2023-04-15T11:15:38;2.22;;;1.75;;
63965;SDS011;50151;52.030;5.350;2023-04-15T11:20:34;3.92;;;1.80;;
63965;SDS011;50151;52.030;5.350;2023-04-15T11:23:01;3.20;;;2.25;;
63965;SDS011;50151;52.030;5.350;2023-04-15T11:25:39;4.63;;;2.13;;
63965;SDS011;50151;52.030;5.350;2023-04-15T11:28:06;2.65;;;1.70;;
63965;SDS011;50151;52.030;5.350;2023-04-15T11:30:35;2.80;;;1.70;;
63965;SDS011;50151;52.030;5.350;2023-04-15T11:33:04;2.03;;;1.67;;
63965;SDS011;50151;52.030;5.350;2023-04-15T11:35:33;2.47;;;1.60;;
63965;SDS011;50151;52.030;5.350;2023-04-15T11:38:04;2.53;;;1.83;;
63965;SDS011;50151;52.030;5.350;2023-04-15T11:40:33;2.47;;;1.52;;
63965;SDS011;50151;52.030;5.350;2023-04-15T11:45:31;3.53;;;2.00;;
63965;SDS011;50151;52.030;5.350;2023-04-15T11:48:08;2.97;;;1.50;;
63965;SDS011;50151;52.030;5.350;2023-04-15T11:50:37;3.22;;;1.50;;
63965;SDS011;50151;52.030;5.350;2023-04-15T11:53:08;2.47;;;1.90;;
63965;SDS011;50151;52.030;5.350;2023-04-15T11:55:41;2.78;;;1.50;;
63965;SDS011;50151;52.030;5.350;2023-04-15T11:58:15;3.20;;;2.15;;
63965;SDS011;50151;52.030;5.350;2023-04-15T12:00:49;4.65;;;2.10;;
63965;SDS011;50151;52.030;5.350;2023-04-15T12:03:21;2.90;;;2.00;;
63965;SDS011;50151;52.030;5.350;2023-04-15T12:06:01;4.55;;;1.95;;
63965;SDS011;50151;52.030;5.350;2023-04-15T12:11:30;2.95;;;1.60;;
63965;SDS011;50151;52.030;5.350;2023-04-15T12:14:20;2.17;;;1.70;;
63965;SDS011;50151;52.030;5.350;2023-04-15T12:16:51;5.32;;;1.73;;
63965;SDS011;50151;52.030;5.350;2023-04-15T12:19:27;8.07;;;2.38;;
63965;SDS011;50151;52.030;5.350;2023-04-15T12:21:58;3.97;;;1.70;;
63965;SDS011;50151;52.030;5.350;2023-04-15T12:24:26;3.35;;;1.90;;
63965;SDS011;50151;52.030;5.350;2023-04-15T12:26:56;2.47;;;1.60;;
63965;SDS011;50151;52.030;5.350;2023-04-15T12:29:27;4.03;;;1.70;;
63965;SDS011;50151;52.030;5.350;2023-04-15T12:31:56;1.50;;;1.17;;
63965;SDS011;50151;52.030;5.350;2023-04-15T12:37:00;4.03;;;1.60;;
63965;SDS011;50151;52.030;5.350;2023-04-15T12:39:29;3.67;;;1.40;;
63965;SDS011;50151;52.030;5.350;2023-04-15T12:41:57;3.95;;;1.30;;
63965;SDS011;50151;52.030;5.350;2023-04-15T12:44:27;7.97;;;1.60;;
63965;SDS011;50151;52.030;5.350;2023-04-15T12:46:54;2.80;;;1.10;;
63965;SDS011;50151;52.030;5.350;2023-04-15T12:49:22;2.83;;;1.55;;
63965;SDS011;50151;52.030;5.350;2023-04-15T12:51:50;1.80;;;1.00;;
63965;SDS011;50151;52.030;5.350;2023-04-15T12:54:21;2.67;;;1.40;;
63965;SDS011;50151;52.030;5.350;2023-04-15T12:56:49;3.08;;;1.40;;
63965;SDS011;50151;52.030;5.350;2023-04-15T12:59:16;2.17;;;1.00;;
63965;SDS011;50151;52.030;5.350;2023-04-15T13:01:44;1.95;;;1.00;;
63965;SDS011;50151;52.030;5.350;2023-04-15T13:04:12;1.60;;;1.10;;
63965;SDS011;50151;52.030;5.350;2023-04-15T13:06:40;4.35;;;1.35;;
63965;SDS011;50151;52.030;5.350;2023-04-15T13:09:07;5.10;;;1.30;;
63965;SDS011;50151;52.030;5.350;2023-04-15T13:11:34;2.53;;;1.60;;
63965;SDS011;50151;52.030;5.350;2023-04-15T13:14:02;4.82;;;0.98;;
63965;SDS011;50151;52.030;5.350;2023-04-15T13:16:31;2.47;;;1.20;;
63965;SDS011;50151;52.030;5.350;2023-04-15T13:18:58;6.20;;;1.30;;
63965;SDS011;50151;52.030;5.350;2023-04-15T13:21:26;2.30;;;1.13;;
63965;SDS011;50151;52.030;5.350;2023-04-15T13:23:53;3.10;;;1.20;;
63965;SDS011;50151;52.030;5.350;2023-04-15T13:26:20;1.17;;;1.00;;
63965;SDS011;50151;52.030;5.350;2023-04-15T13:28:47;1.90;;;1.05;;
63965;SDS011;50151;52.030;5.350;2023-04-15T13:31:14;2.60;;;0.90;;
63965;SDS011;50151;52.030;5.350;2023-04-15T13:33:41;0.52;;;0.47;;
63965;SDS011;50151;52.030;5.350;2023-04-15T13:36:08;2.38;;;0.98;;
63965;SDS011;50151;52.030;5.350;2023-04-15T13:38:35;3.00;;;0.93;;
63965;SDS011;50151;52.030;5.350;2023-04-15T13:41:01;2.65;;;0.90;;
63965;SDS011;50151;52.030;5.350;2023-04-15T13:43:28;1.70;;;0.98;;
63965;SDS011;50151;52.030;5.350;2023-04-15T13:45:55;3.10;;;1.20;;
63965;SDS011;50151;52.030;5.350;2023-04-15T13:48:22;6.47;;;1.63;;
63965;SDS011;50151;52.030;5.350;2023-04-15T13:50:49;2.53;;;1.02;;
63965;SDS011;50151;52.030;5.350;2023-04-15T13:53:16;6.70;;;1.17;;
63965;SDS011;50151;52.030;5.350;2023-04-15T13:55:43;4.70;;;1.15;;
63965;SDS011;50151;52.030;5.350;2023-04-15T13:58:11;6.30;;;1.90;;
63965;SDS011;50151;52.030;5.350;2023-04-15T14:00:38;1.40;;;0.93;;
63965;SDS011;50151;52.030;5.350;2023-04-15T14:03:05;3.78;;;1.20;;
63965;SDS011;50151;52.030;5.350;2023-04-15T14:05:32;3.83;;;1.13;;
63965;SDS011;50151;52.030;5.350;2023-04-15T14:07:59;2.13;;;0.90;;
63965;SDS011;50151;52.030;5.350;2023-04-15T14:10:26;5.03;;;1.10;;
63965;SDS011;50151;52.030;5.350;2023-04-15T14:12:53;3.13;;;0.80;;
63965;SDS011;50151;52.030;5.350;2023-04-15T14:15:19;3.42;;;1.25;;
63965;SDS011;50151;52.030;5.350;2023-04-15T14:17:46;2.50;;;1.13;;
63965;SDS011;50151;52.030;5.350;2023-04-15T14:20:13;3.25;;;1.00;;
63965;SDS011;50151;52.030;5.350;2023-04-15T14:22:42;2.38;;;0.80;;
63965;SDS011;50151;52.030;5.350;2023-04-15T14:25:09;1.40;;;0.77;;
63965;SDS011;50151;52.030;5.350;2023-04-15T14:27:48;4.15;;;0.95;;
63965;SDS011;50151;52.030;5.350;2023-04-15T14:30:15;2.67;;;1.20;;
63965;SDS011;50151;52.030;5.350;2023-04-15T14:32:42;1.70;;;0.75;;
63965;SDS011;50151;52.030;5.350;2023-04-15T14:35:08;2.05;;;0.90;;
63965;SDS011;50151;52.030;5.350;2023-04-15T14:37:36;4.10;;;1.42;;
63965;SDS011;50151;52.030;5.350;2023-04-15T14:40:03;2.03;;;0.90;;
63965;SDS011;50151;52.030;5.350;2023-04-15T14:42:31;4.45;;;1.15;;
63965;SDS011;50151;52.030;5.350;2023-04-15T14:44:57;4.13;;;1.50;;
63965;SDS011;50151;52.030;5.350;2023-04-15T14:47:24;3.47;;;1.30;;
63965;SDS011;50151;52.030;5.350;2023-04-15T14:49:51;2.33;;;1.10;;
63965;SDS011;50151;52.030;5.350;2023-04-15T14:52:18;9.38;;;1.98;;
63965;SDS011;50151;52.030;5.350;2023-04-15T14:54:45;3.50;;;1.17;;
63965;SDS011;50151;52.030;5.350;2023-04-15T14:57:11;4.15;;;1.35;;
63965;SDS011;50151;52.030;5.350;2023-04-15T14:59:38;2.10;;;1.10;;
63965;SDS011;50151;52.030;5.350;2023-04-15T15:02:05;5.28;;;1.05;;
63965;SDS011;50151;52.030;5.350;2023-04-15T15:04:31;3.35;;;0.93;;
63965;SDS011;50151;52.030;5.350;2023-04-15T15:07:01;5.88;;;1.08;;
63965;SDS011;50151;52.030;5.350;2023-04-15T15:09:27;3.17;;;0.98;;
63965;SDS011;50151;52.030;5.350;2023-04-15T15:11:54;5.70;;;1.10;;
63965;SDS011;50151;52.030;5.350;2023-04-15T15:14:22;5.10;;;0.90;;